createdAt,value
2023-02-11T00:01:36.106Z,61.80
2023-02-11T00:04:06.455Z,61.70
2023-02-11T00:06:36.033Z,61.80
2023-02-11T00:09:05.191Z,61.70
2023-02-11T00:11:33.721Z,61.70
2023-02-11T00:14:04.253Z,61.60
2023-02-11T00:16:33.866Z,61.60
2023-02-11T00:19:03.742Z,61.60
2023-02-11T00:21:31.914Z,61.60
2023-02-11T00:24:02.448Z,61.60
2023-02-11T00:26:34.122Z,61.60
2023-02-11T00:29:02.680Z,61.50
2023-02-11T00:31:31.088Z,61.50
2023-02-11T00:34:00.689Z,61.50
2023-02-11T00:36:30.342Z,61.50
2023-02-11T00:38:59.690Z,61.60
2023-02-11T00:41:27.958Z,61.60
2023-02-11T00:43:56.162Z,61.60
2023-02-11T00:46:24.668Z,61.60
2023-02-11T00:48:55.032Z,62.10
2023-02-11T00:51:24.969Z,61.60
2023-02-11T00:53:53.752Z,61.60
2023-02-11T00:56:22.162Z,61.70
2023-02-11T00:58:50.351Z,61.70
2023-02-11T01:01:18.741Z,61.80
2023-02-11T01:03:47.183Z,61.80
2023-02-11T01:06:15.484Z,61.80
2023-02-11T01:08:45.037Z,61.90
2023-02-11T01:11:14.992Z,61.90
2023-02-11T01:13:44.097Z,62.00
2023-02-11T01:16:12.804Z,62.00
2023-02-11T01:18:44.226Z,62.10
2023-02-11T01:21:13.138Z,62.10
2023-02-11T01:23:41.370Z,62.20
2023-02-11T01:26:10.938Z,62.10
2023-02-11T01:28:39.096Z,62.20
2023-02-11T01:31:07.333Z,62.30
2023-02-11T01:33:35.629Z,62.40
2023-02-11T01:36:04.917Z,62.40
2023-02-11T01:38:33.655Z,62.40
2023-02-11T01:41:04.562Z,62.50
2023-02-11T01:43:37.095Z,62.60
2023-02-11T01:46:24.452Z,62.60
2023-02-11T01:48:55.808Z,62.80
2023-02-11T01:51:28.659Z,62.80
2023-02-11T01:54:15.552Z,62.90
2023-02-11T01:57:04.896Z,62.90
2023-02-11T01:59:39.606Z,63.10
2023-02-11T02:02:11.764Z,63.20
2023-02-11T02:04:43.245Z,63.30
2023-02-11T02:07:15.353Z,63.30
2023-02-11T02:09:46.642Z,63.40
2023-02-11T02:12:14.904Z,63.50
2023-02-11T02:14:44.589Z,63.60
2023-02-11T02:17:23.547Z,63.70
2023-02-11T02:20:14.619Z,63.80
2023-02-11T02:23:11.239Z,63.80
2023-02-11T02:26:04.730Z,63.90
2023-02-11T02:28:57.260Z,64.00
2023-02-11T02:31:40.834Z,63.90
2023-02-11T02:34:18.358Z,64.10
2023-02-11T02:36:52.924Z,64.10
2023-02-11T02:39:27.186Z,64.20
2023-02-11T02:41:57.171Z,65.00
2023-02-11T02:44:25.744Z,64.30
2023-02-11T02:46:54.019Z,64.40
2023-02-11T02:49:23.630Z,64.50
2023-02-11T02:52:12.752Z,64.60
2023-02-11T02:55:16.550Z,64.70
2023-02-11T02:58:04.423Z,64.70
2023-02-11T03:00:44.179Z,64.70
2023-02-11T03:03:23.562Z,64.70
2023-02-11T03:05:59.313Z,64.80
2023-02-11T03:08:33.454Z,65.00
2023-02-11T03:11:04.377Z,65.00
2023-02-11T03:13:35.571Z,65.10
2023-02-11T03:16:09.300Z,65.10
2023-02-11T03:18:39.280Z,65.30
2023-02-11T03:21:11.047Z,65.40
2023-02-11T03:23:43.164Z,65.40
2023-02-11T03:26:18.068Z,65.50
2023-02-11T03:28:52.383Z,65.60
2023-02-11T03:31:28.120Z,65.70
2023-02-11T03:34:02.260Z,65.70
2023-02-11T03:36:36.899Z,65.80
2023-02-11T03:39:07.188Z,65.90
2023-02-11T03:41:36.607Z,65.90
2023-02-11T03:44:06.863Z,65.90
2023-02-11T03:46:38.363Z,65.90
2023-02-11T03:49:10.643Z,65.90
2023-02-11T03:51:41.247Z,65.90
2023-02-11T03:54:14.768Z,65.90
2023-02-11T03:56:50.224Z,66.00
2023-02-11T03:59:18.479Z,66.10
2023-02-11T04:01:46.769Z,66.00
2023-02-11T04:04:15.409Z,66.20
2023-02-11T04:06:45.132Z,66.30
2023-02-11T04:09:13.750Z,66.40
2023-02-11T04:11:41.937Z,66.30
2023-02-11T04:14:10.141Z,66.40
2023-02-11T04:16:38.377Z,66.70
2023-02-11T04:19:06.544Z,66.50
2023-02-11T04:21:34.714Z,66.60
2023-02-11T04:24:04.496Z,66.60
2023-02-11T04:26:32.712Z,66.60
2023-02-11T04:29:00.922Z,66.70
2023-02-11T04:31:29.514Z,66.70
2023-02-11T04:33:58.490Z,66.80
2023-02-11T04:36:26.660Z,66.70
2023-02-11T04:38:54.844Z,66.80
2023-02-11T04:41:24.510Z,67.40
2023-02-11T04:43:52.709Z,66.80
2023-02-11T04:46:20.938Z,66.90
2023-02-11T04:48:49.091Z,67.00
2023-02-11T04:51:17.300Z,67.00
2023-02-11T04:53:45.503Z,67.10
2023-02-11T04:56:13.723Z,67.10
2023-02-11T04:58:43.334Z,67.00
2023-02-11T05:01:13.610Z,67.00
2023-02-11T05:03:42.825Z,67.00
2023-02-11T05:06:11.969Z,67.10
2023-02-11T05:08:40.476Z,67.20
2023-02-11T05:11:15.329Z,67.30
2023-02-11T05:13:45.136Z,67.20
2023-02-11T05:16:13.564Z,67.30
2023-02-11T05:18:42.605Z,67.30
2023-02-11T05:21:12.582Z,67.50
2023-02-11T05:23:41.239Z,67.50
2023-02-11T05:26:10.077Z,67.50
2023-02-11T05:28:38.278Z,67.60
2023-02-11T05:31:08.105Z,67.50
2023-02-11T05:33:36.482Z,67.70
2023-02-11T05:36:07.548Z,67.90
2023-02-11T05:38:36.104Z,67.90
2023-02-11T05:41:05.347Z,68.00
2023-02-11T05:43:35.163Z,68.20
2023-02-11T05:46:03.842Z,68.20
2023-02-11T05:48:33.693Z,68.20
2023-02-11T05:51:02.018Z,68.40
2023-02-11T05:53:30.187Z,68.60
2023-02-11T05:55:58.507Z,68.70
2023-02-11T05:58:26.703Z,68.80
2023-02-11T06:00:54.887Z,69.00
2023-02-11T06:03:23.057Z,69.20
2023-02-11T06:05:52.814Z,69.20
2023-02-11T06:08:21.175Z,69.40
2023-02-11T06:10:49.367Z,69.50
2023-02-11T06:13:18.560Z,69.70
2023-02-11T06:15:47.199Z,69.80
2023-02-11T06:18:15.372Z,69.70
2023-02-11T06:20:43.547Z,69.90
2023-02-11T06:23:13.263Z,69.90
2023-02-11T06:25:41.482Z,70.00
2023-02-11T06:28:10.593Z,70.10
2023-02-11T06:30:39.263Z,70.30
2023-02-11T06:33:07.514Z,70.60
2023-02-11T06:35:36.597Z,70.80
2023-02-11T06:38:04.722Z,70.90
2023-02-11T06:40:34.485Z,71.00
2023-02-11T06:43:02.669Z,71.20
2023-02-11T06:45:30.810Z,71.30
2023-02-11T06:47:58.948Z,71.60
2023-02-11T06:50:27.075Z,71.70
2023-02-11T06:52:55.246Z,71.80
2023-02-11T06:55:23.500Z,71.70
2023-02-11T06:57:53.072Z,71.70
2023-02-11T07:00:21.333Z,71.80
2023-02-11T07:02:49.605Z,71.90
2023-02-11T07:05:17.854Z,72.00
2023-02-11T07:07:46.033Z,72.10
2023-02-11T07:10:14.312Z,72.10
2023-02-11T07:12:42.494Z,72.20
2023-02-11T07:15:12.222Z,72.20
2023-02-11T07:17:40.360Z,72.20
2023-02-11T07:20:09.536Z,72.20
2023-02-11T07:22:37.638Z,72.20
2023-02-11T07:25:06.700Z,72.20
2023-02-11T07:27:34.845Z,72.20
2023-02-11T07:30:04.924Z,72.20
2023-02-11T07:32:36.509Z,72.40
2023-02-11T07:35:05.228Z,72.40
2023-02-11T07:37:35.359Z,72.50
2023-02-11T07:40:04.125Z,72.50
2023-02-11T07:42:32.398Z,72.60
2023-02-11T07:45:00.663Z,72.80
2023-02-11T07:47:29.286Z,73.00
2023-02-11T07:49:58.964Z,73.00
2023-02-11T07:52:30.043Z,73.20
2023-02-11T07:54:58.407Z,73.40
2023-02-11T07:57:26.906Z,73.50
2023-02-11T07:59:55.143Z,73.80
2023-02-11T08:02:23.460Z,74.10
2023-02-11T08:04:51.745Z,74.50
2023-02-11T08:07:21.270Z,74.60
2023-02-11T08:09:49.484Z,74.70
2023-02-11T08:12:17.731Z,74.80
2023-02-11T08:14:45.857Z,74.90
2023-02-11T08:17:14.175Z,75.20
2023-02-11T08:19:42.404Z,75.30
2023-02-11T08:22:10.610Z,75.40
2023-02-11T08:24:40.200Z,75.40
2023-02-11T08:27:08.457Z,75.50
2023-02-11T08:29:36.683Z,75.50
2023-02-11T08:32:05.067Z,75.70
2023-02-11T08:34:34.109Z,75.80
2023-02-11T14:41:10.959Z,69.40
2023-02-11T14:43:42.991Z,71.30
2023-02-11T14:46:11.730Z,73.60
2023-02-11T14:48:44.554Z,75.30
2023-02-11T14:51:16.796Z,76.40
2023-02-11T14:53:50.009Z,77.20
2023-02-11T14:56:21.730Z,77.60
2023-02-11T14:58:52.134Z,77.80
2023-02-11T15:01:32.014Z,78.00
2023-02-11T15:04:04.124Z,78.00
2023-02-11T15:06:33.931Z,77.90
2023-02-11T15:09:05.655Z,78.10
2023-02-11T15:11:39.768Z,78.00
2023-02-11T15:14:11.679Z,78.00
2023-02-11T15:16:43.504Z,78.10
2023-02-11T15:19:21.365Z,77.90
2023-02-11T15:21:50.859Z,77.80
2023-02-11T15:24:25.477Z,77.80
2023-02-11T15:27:00.248Z,77.60
2023-02-11T15:29:35.355Z,77.70
2023-02-11T15:32:16.868Z,77.70
2023-02-11T15:34:46.242Z,77.60
2023-02-11T15:37:18.180Z,77.60
2023-02-11T15:39:46.454Z,77.60
2023-02-11T15:42:24.522Z,77.40
2023-02-11T15:45:12.767Z,77.30
2023-02-11T15:47:43.259Z,77.30
2023-02-11T15:50:22.095Z,77.20
2023-02-11T15:52:50.803Z,77.10
2023-02-11T15:55:20.118Z,77.00
2023-02-11T15:57:55.159Z,76.80
2023-02-11T16:00:26.089Z,76.80
2023-02-11T16:02:54.843Z,76.80
2023-02-11T16:05:30.212Z,76.90
2023-02-11T16:07:59.712Z,76.80
2023-02-11T16:10:30.624Z,76.70
2023-02-11T16:13:20.254Z,76.60
2023-02-11T16:15:52.430Z,76.60
2023-02-11T16:18:39.023Z,76.50
2023-02-11T16:21:14.463Z,76.50
2023-02-11T16:23:43.236Z,76.60
2023-02-11T16:26:22.943Z,76.60
2023-02-11T16:28:53.001Z,76.60
2023-02-11T16:31:21.467Z,76.60
2023-02-11T16:33:50.180Z,76.60
2023-02-11T16:36:18.556Z,76.60
2023-02-11T16:38:46.783Z,76.40
2023-02-11T16:41:15.152Z,76.40
2023-02-11T16:43:43.371Z,76.40
2023-02-11T16:46:16.784Z,76.30
2023-02-11T16:48:46.689Z,76.30
2023-02-11T16:51:15.407Z,76.20
2023-02-11T16:53:43.584Z,76.10
2023-02-11T16:56:16.609Z,76.10
2023-02-11T16:58:45.360Z,76.80
2023-02-11T17:01:15.055Z,76.20
2023-02-11T17:03:43.698Z,76.20
2023-02-11T17:06:14.023Z,76.10
2023-02-11T17:08:42.481Z,76.10
2023-02-11T17:11:10.743Z,76.10
2023-02-11T17:13:39.457Z,76.00
2023-02-11T17:16:14.747Z,76.00
2023-02-11T17:18:42.936Z,76.00
2023-02-11T17:21:11.201Z,76.00
2023-02-11T17:23:39.841Z,76.00
2023-02-11T17:26:08.098Z,75.90
2023-02-11T17:28:36.684Z,76.00
2023-02-11T17:31:08.802Z,76.00
2023-02-11T17:33:38.840Z,75.90
2023-02-11T17:36:09.055Z,75.70
2023-02-11T17:38:38.610Z,75.80
2023-02-11T17:41:07.215Z,76.10
2023-02-11T17:43:35.553Z,76.00
2023-02-11T17:46:07.557Z,75.90
2023-02-11T17:48:35.850Z,76.00
2023-02-11T17:51:05.968Z,76.00
2023-02-11T17:53:34.226Z,76.10
2023-02-11T17:56:06.359Z,76.10
2023-02-11T17:58:34.564Z,76.20
2023-02-11T18:01:02.948Z,76.30
2023-02-11T18:03:31.254Z,76.30
2023-02-11T18:06:01.056Z,76.40
2023-02-11T18:08:31.061Z,76.40
2023-02-11T18:10:59.389Z,76.50
2023-02-11T18:13:28.519Z,76.60
2023-02-11T18:15:56.744Z,76.70
2023-02-11T18:18:24.971Z,76.70
2023-02-11T18:20:57.986Z,76.70
2023-02-11T18:23:26.669Z,76.60
2023-02-11T18:25:56.376Z,76.60
2023-02-11T18:28:24.611Z,76.60
2023-02-11T18:30:58.251Z,76.60
2023-02-11T18:33:27.140Z,76.70
2023-02-11T18:35:55.711Z,76.70
2023-02-11T18:38:24.032Z,76.70
2023-02-11T18:40:53.147Z,76.80
2023-02-11T18:43:22.776Z,76.80
2023-02-11T18:45:51.793Z,77.00
2023-02-11T18:48:20.179Z,77.00
2023-02-11T18:50:48.353Z,77.10
2023-02-11T18:53:16.672Z,77.30
2023-02-11T18:55:46.331Z,77.30
2023-02-11T18:58:15.290Z,77.20
2023-02-11T19:00:50.147Z,77.30
2023-02-11T19:03:18.457Z,77.40
2023-02-11T19:05:48.791Z,77.30
2023-02-11T19:08:17.966Z,77.30
2023-02-11T19:10:49.302Z,77.40
2023-02-11T19:13:17.458Z,78.20
2023-02-11T19:15:47.873Z,77.60
2023-02-11T19:18:17.381Z,77.60
2023-02-11T19:20:45.932Z,77.70
2023-02-11T19:23:14.094Z,77.60
2023-02-11T19:25:46.841Z,77.70
2023-02-11T19:28:15.492Z,77.80
2023-02-11T19:30:43.872Z,77.80
2023-02-11T19:33:13.452Z,77.80
2023-02-11T19:35:41.874Z,77.80
2023-02-11T19:38:10.081Z,77.80
2023-02-11T19:40:38.262Z,77.90
2023-02-11T19:43:06.540Z,78.00
2023-02-11T19:45:37.809Z,77.60
2023-02-11T19:48:06.209Z,78.00
2023-02-11T19:50:35.792Z,77.90
2023-02-11T19:53:03.996Z,77.80
2023-02-11T19:55:35.075Z,78.00
2023-02-11T19:58:03.255Z,78.10
2023-02-11T20:00:31.453Z,78.00
2023-02-11T20:02:59.788Z,78.00
2023-02-11T20:05:28.161Z,78.10
2023-02-11T20:07:57.750Z,78.30
2023-02-11T20:10:26.143Z,78.20
2023-02-11T20:12:54.340Z,78.40
2023-02-11T20:15:22.537Z,78.50
2023-02-11T20:17:50.783Z,78.60
2023-02-11T20:20:19.106Z,78.60
2023-02-11T20:22:47.306Z,78.60
2023-02-11T20:25:16.952Z,78.60
2023-02-11T20:27:45.131Z,78.70
2023-02-11T20:30:14.369Z,78.80
2023-02-11T20:32:42.614Z,78.90
2023-02-11T20:35:11.224Z,79.00
2023-02-11T20:37:41.668Z,79.00
2023-02-11T20:40:11.948Z,79.30
2023-02-11T20:42:41.453Z,79.20
2023-02-11T20:45:10.270Z,79.20
2023-02-11T20:47:38.985Z,79.20
2023-02-11T20:50:08.362Z,79.30
2023-02-11T20:52:36.924Z,79.20
2023-02-11T20:55:05.451Z,80.00
2023-02-11T20:57:35.022Z,79.40
2023-02-11T21:00:05.470Z,80.30
2023-02-11T21:02:33.601Z,79.80
2023-02-11T21:05:01.737Z,79.70
2023-02-11T21:07:30.063Z,79.80
2023-02-11T21:09:58.357Z,79.80
2023-02-11T21:12:26.506Z,79.80
2023-02-11T21:14:55.008Z,79.80
2023-02-11T21:17:26.270Z,79.80
2023-02-11T21:19:54.437Z,80.30
2023-02-11T21:22:22.632Z,79.70
2023-02-11T21:24:50.990Z,79.70
2023-02-11T21:27:19.164Z,79.70
2023-02-11T21:29:54.120Z,79.60
2023-02-11T21:32:24.396Z,79.70
2023-02-11T21:34:53.867Z,79.70
2023-02-11T21:37:23.133Z,79.80
2023-02-11T21:39:51.309Z,79.80
2023-02-11T21:42:19.531Z,80.50
2023-02-11T21:44:47.674Z,79.80
2023-02-11T21:47:15.941Z,79.60
2023-02-11T21:49:45.445Z,79.60
2023-02-11T21:52:13.681Z,79.50
2023-02-11T21:54:41.874Z,79.40
2023-02-11T21:57:10.089Z,79.40
2023-02-11T21:59:38.411Z,79.30
2023-02-11T22:02:06.868Z,79.30
2023-02-11T22:04:35.039Z,79.20
2023-02-11T22:07:04.711Z,79.20
2023-02-11T22:09:33.133Z,79.20
2023-02-11T22:12:01.348Z,79.20
2023-02-11T22:14:32.184Z,79.10
2023-02-11T22:17:00.567Z,79.10
2023-02-11T22:19:28.939Z,79.00
2023-02-11T22:21:57.116Z,79.00
2023-02-11T22:24:26.709Z,79.00
2023-02-11T22:26:54.943Z,78.90
2023-02-11T22:29:23.284Z,79.00
2023-02-11T22:31:51.467Z,78.90
2023-02-11T22:34:19.701Z,78.90
2023-02-11T22:36:47.928Z,78.80
2023-02-11T22:39:17.538Z,78.70
2023-02-11T22:41:48.421Z,78.80
2023-02-11T22:44:17.768Z,78.70
2023-02-11T22:46:45.988Z,79.00
2023-02-11T22:49:16.920Z,78.70
2023-02-11T22:51:45.836Z,78.60
2023-02-11T22:54:16.473Z,78.50
2023-02-11T22:56:46.858Z,78.60
2023-02-11T22:59:43.421Z,78.60
2023-02-11T23:02:11.737Z,78.70
2023-02-11T23:04:40.013Z,78.50
2023-02-11T23:07:08.173Z,78.50
2023-02-11T23:09:36.331Z,78.50
2023-02-11T23:12:06.335Z,78.40
2023-02-11T23:14:34.539Z,78.40
2023-02-11T23:17:03.055Z,78.50
2023-02-11T23:19:31.200Z,78.50
2023-02-11T23:21:59.420Z,78.40
2023-02-11T23:24:27.673Z,78.40
2023-02-11T23:26:55.999Z,78.40
2023-02-11T23:29:25.566Z,78.40
2023-02-11T23:31:55.290Z,78.40
2023-02-11T23:34:25.365Z,78.40
2023-02-11T23:36:53.717Z,78.40
2023-02-11T23:39:21.931Z,78.40
2023-02-11T23:41:52.268Z,78.40
2023-02-11T23:44:20.441Z,78.40
2023-02-11T23:46:49.951Z,78.40
2023-02-11T23:49:18.136Z,78.40
2023-02-11T23:51:46.500Z,78.40
2023-02-11T23:54:15.574Z,78.40
2023-02-11T23:56:43.888Z,78.50
2023-02-11T23:59:12.578Z,78.50
